createdAt,value
2024-02-21T00:01:19.614Z,5.47
2024-02-21T00:03:22.864Z,5.82
2024-02-21T00:05:25.901Z,5.95
2024-02-21T00:07:28.437Z,6.00
2024-02-21T00:09:33.178Z,5.72
2024-02-21T00:11:35.561Z,5.57
2024-02-21T00:13:38.499Z,5.13
2024-02-21T00:15:40.800Z,6.40
2024-02-21T00:17:47.382Z,6.53
2024-02-21T00:19:49.700Z,5.70
2024-02-21T00:21:52.288Z,5.43
2024-02-21T00:23:54.748Z,6.03
2024-02-21T00:25:57.288Z,5.82
2024-02-21T00:27:59.470Z,5.82
2024-02-21T00:30:02.151Z,6.63
2024-02-21T00:32:05.008Z,5.82
2024-02-21T00:34:07.562Z,5.40
2024-02-21T00:36:09.864Z,4.85
2024-02-21T00:38:12.415Z,4.97
2024-02-21T00:40:17.666Z,5.15
2024-02-21T00:42:20.118Z,4.35
2024-02-21T00:44:22.438Z,5.10
2024-02-21T00:46:24.989Z,4.68
2024-02-21T00:48:27.243Z,4.03
2024-02-21T00:50:29.818Z,4.45
2024-02-21T00:52:32.050Z,3.70
2024-02-21T00:54:44.386Z,4.15
2024-02-21T00:56:52.636Z,3.45
2024-02-21T00:58:55.200Z,3.42
2024-02-21T01:00:57.513Z,3.53
2024-02-21T01:02:59.902Z,3.53
2024-02-21T01:05:03.403Z,4.63
2024-02-21T01:07:06.180Z,2.92
2024-02-21T01:09:08.395Z,3.00
2024-02-21T01:11:10.942Z,2.88
2024-02-21T01:13:13.425Z,3.05
2024-02-21T01:15:15.897Z,2.88
2024-02-21T01:17:18.090Z,3.10
2024-02-21T01:19:20.651Z,2.92
2024-02-21T01:21:22.891Z,2.92
2024-02-21T01:23:25.405Z,2.20
2024-02-21T01:25:27.583Z,2.65
2024-02-21T01:27:30.340Z,3.38
2024-02-21T01:29:32.545Z,2.75
2024-02-21T01:31:35.089Z,2.92
2024-02-21T01:33:37.351Z,4.32
2024-02-21T01:35:39.767Z,2.70
2024-02-21T01:37:42.274Z,2.63
2024-02-21T01:39:44.869Z,3.03
2024-02-21T01:41:47.040Z,3.00
2024-02-21T01:43:49.574Z,3.28
2024-02-21T01:45:54.281Z,3.00
2024-02-21T01:47:57.282Z,3.35
2024-02-21T01:49:59.636Z,2.45
2024-02-21T01:52:03.977Z,2.70
2024-02-21T01:54:06.747Z,2.85
2024-02-21T01:56:10.716Z,2.10
2024-02-21T01:58:15.144Z,2.17
2024-02-21T02:00:18.136Z,1.83
2024-02-21T02:02:20.364Z,2.03
2024-02-21T02:04:23.940Z,2.22
2024-02-21T02:06:26.426Z,1.90
2024-02-21T02:08:29.156Z,3.05
2024-02-21T02:10:31.434Z,1.10
2024-02-21T02:12:33.990Z,1.00
2024-02-21T02:14:36.131Z,1.67
2024-02-21T02:16:38.634Z,2.05
2024-02-21T02:18:40.947Z,1.55
2024-02-21T02:20:45.745Z,1.92
2024-02-21T02:22:50.190Z,1.15
2024-02-21T02:24:52.857Z,1.50
2024-02-21T02:26:54.980Z,1.60
2024-02-21T02:28:57.873Z,1.52
2024-02-21T02:31:00.114Z,2.03
2024-02-21T02:33:03.006Z,2.58
2024-02-21T02:35:05.623Z,1.67
2024-02-21T02:37:08.050Z,1.48
2024-02-21T02:39:10.243Z,1.60
2024-02-21T02:41:12.616Z,2.30
2024-02-21T02:43:14.874Z,1.55
2024-02-21T02:45:18.976Z,1.80
2024-02-21T02:47:21.203Z,1.40
2024-02-21T02:49:23.714Z,1.42
2024-02-21T02:51:25.923Z,2.13
2024-02-21T02:53:28.708Z,1.85
2024-02-21T02:55:31.357Z,1.52
2024-02-21T02:57:34.260Z,1.50
2024-02-21T02:59:36.538Z,1.52
2024-02-21T03:01:39.630Z,1.88
2024-02-21T03:03:41.997Z,1.38
2024-02-21T03:05:44.589Z,1.27
2024-02-21T03:07:47.713Z,2.75
2024-02-21T03:09:50.554Z,1.75
2024-02-21T03:11:53.757Z,1.80
2024-02-21T03:13:58.182Z,3.20
2024-02-21T03:16:00.494Z,2.03
2024-02-21T03:18:03.050Z,2.00
2024-02-21T03:20:12.312Z,2.00
2024-02-21T03:22:16.793Z,1.95
2024-02-21T03:24:19.913Z,1.60
2024-02-21T03:26:22.350Z,1.88
2024-02-21T03:28:24.583Z,1.48
2024-02-21T03:30:27.001Z,1.50
2024-02-21T03:32:29.983Z,1.92
2024-02-21T03:34:32.905Z,2.20
2024-02-21T03:36:35.339Z,2.22
2024-02-21T03:38:37.750Z,2.70
2024-02-21T03:40:40.078Z,2.20
2024-02-21T03:42:42.610Z,1.52
2024-02-21T03:44:44.822Z,2.03
2024-02-21T03:46:47.834Z,1.65
2024-02-21T03:48:50.036Z,2.22
2024-02-21T03:50:52.683Z,1.60
2024-02-21T03:52:54.991Z,1.83
2024-02-21T03:54:57.563Z,2.35
2024-02-21T03:56:59.792Z,2.30
2024-02-21T03:59:03.071Z,2.17
2024-02-21T04:01:05.390Z,1.80
2024-02-21T04:03:08.329Z,3.10
2024-02-21T04:05:12.719Z,2.28
2024-02-21T04:07:16.154Z,2.20
2024-02-21T04:09:18.733Z,2.00
2024-02-21T04:11:21.339Z,2.08
2024-02-21T04:13:24.133Z,2.72
2024-02-21T04:15:26.623Z,1.90
2024-02-21T04:17:29.426Z,2.10
2024-02-21T04:19:32.461Z,1.77
2024-02-21T04:21:36.591Z,1.90
2024-02-21T04:23:39.237Z,2.47
2024-02-21T04:25:41.487Z,1.85
2024-02-21T04:27:44.015Z,1.80
2024-02-21T04:29:46.251Z,1.90
2024-02-21T04:31:48.863Z,2.13
2024-02-21T04:33:51.114Z,1.83
2024-02-21T04:35:55.988Z,2.50
2024-02-21T04:37:58.246Z,2.65
2024-02-21T04:40:01.153Z,1.67
2024-02-21T04:42:03.762Z,2.00
2024-02-21T04:44:06.360Z,1.83
2024-02-21T04:46:08.588Z,2.28
2024-02-21T04:48:10.994Z,2.00
2024-02-21T04:50:14.375Z,2.47
2024-02-21T04:52:16.981Z,1.63
2024-02-21T04:54:19.170Z,2.25
2024-02-21T04:56:21.646Z,2.00
2024-02-21T04:58:23.907Z,2.08
2024-02-21T05:00:26.529Z,2.05
2024-02-21T05:02:28.905Z,2.80
2024-02-21T05:04:31.529Z,1.88
2024-02-21T05:06:38.055Z,2.45
2024-02-21T05:08:41.685Z,2.95
2024-02-21T05:10:43.922Z,2.40
2024-02-21T05:12:46.484Z,2.72
2024-02-21T05:14:48.943Z,2.97
2024-02-21T05:16:51.593Z,2.97
2024-02-21T05:18:54.222Z,3.47
2024-02-21T05:20:56.679Z,2.92
2024-02-21T05:22:58.920Z,2.72
2024-02-21T05:25:01.431Z,3.40
2024-02-21T05:27:03.796Z,3.08
2024-02-21T05:29:06.230Z,3.08
2024-02-21T05:31:08.423Z,3.50
2024-02-21T05:33:11.087Z,3.70
2024-02-21T05:35:13.884Z,3.72
2024-02-21T05:37:16.778Z,2.78
2024-02-21T05:39:19.633Z,3.22
2024-02-21T05:41:22.112Z,3.15
2024-02-21T05:43:24.296Z,3.45
2024-02-21T05:45:26.791Z,3.83
2024-02-21T05:47:36.645Z,3.55
2024-02-21T05:49:41.083Z,3.47
2024-02-21T05:51:46.340Z,3.17
2024-02-21T05:53:48.927Z,3.55
2024-02-21T05:55:51.149Z,2.95
2024-02-21T05:57:56.566Z,4.93
2024-02-21T05:59:58.743Z,3.75
2024-02-21T06:02:01.372Z,3.13
2024-02-21T06:04:03.757Z,3.13
2024-02-21T06:06:07.818Z,2.70
2024-02-21T06:08:10.429Z,3.13
2024-02-21T06:10:13.031Z,3.20
2024-02-21T06:12:15.183Z,2.97
2024-02-21T06:14:17.687Z,3.65
2024-02-21T06:16:20.463Z,2.83
2024-02-21T06:18:23.046Z,3.92
2024-02-21T06:20:25.365Z,4.07
2024-02-21T06:22:27.844Z,3.55
2024-02-21T06:24:30.180Z,3.15
2024-02-21T06:26:32.709Z,3.08
2024-02-21T06:28:34.896Z,2.75
2024-02-21T06:30:37.675Z,2.83
2024-02-21T06:32:39.812Z,2.85
2024-02-21T06:34:42.373Z,4.00
2024-02-21T06:36:46.395Z,3.38
2024-02-21T06:38:48.946Z,2.92
2024-02-21T06:40:53.450Z,2.83
2024-02-21T06:42:56.034Z,2.58
2024-02-21T06:44:58.304Z,3.22
2024-02-21T06:47:00.954Z,4.35
2024-02-21T06:49:05.152Z,3.17
2024-02-21T06:51:07.678Z,3.03
2024-02-21T06:53:09.963Z,3.33
2024-02-21T06:55:12.999Z,3.92
2024-02-21T06:57:16.623Z,3.75
2024-02-21T06:59:19.289Z,3.40
2024-02-21T07:01:21.737Z,5.30
2024-02-21T07:03:27.336Z,4.15
2024-02-21T07:05:29.775Z,3.88
2024-02-21T07:07:33.513Z,4.85
2024-02-21T07:09:35.710Z,4.47
2024-02-21T07:11:38.251Z,4.28
2024-02-21T07:13:40.554Z,4.05
2024-02-21T07:15:43.377Z,3.92
2024-02-21T07:17:45.627Z,4.90
2024-02-21T07:19:48.119Z,4.70
2024-02-21T07:21:50.346Z,4.35
2024-02-21T07:23:52.866Z,4.57
2024-02-21T07:25:55.060Z,6.07
2024-02-21T07:27:57.613Z,6.03
2024-02-21T07:29:59.864Z,4.68
2024-02-21T07:32:03.508Z,4.95
2024-02-21T07:34:05.673Z,4.25
2024-02-21T07:36:09.934Z,4.90
2024-02-21T07:38:14.239Z,5.30
2024-02-21T07:40:17.930Z,6.53
2024-02-21T07:42:20.214Z,4.53
2024-02-21T07:44:22.621Z,4.10
2024-02-21T07:46:25.048Z,4.20
2024-02-21T07:48:28.084Z,5.03
2024-02-21T07:50:30.661Z,4.00
2024-02-21T07:52:33.425Z,4.05
2024-02-21T07:54:35.593Z,4.28
2024-02-21T07:56:38.114Z,3.88
2024-02-21T07:58:41.198Z,4.43
2024-02-21T08:00:43.712Z,3.97
2024-02-21T08:02:46.032Z,4.30
2024-02-21T08:04:48.812Z,4.82
2024-02-21T08:06:57.438Z,4.93
2024-02-21T08:09:01.752Z,4.50
2024-02-21T08:11:04.251Z,4.22
2024-02-21T08:13:07.421Z,5.85
2024-02-21T08:15:11.991Z,4.93
2024-02-21T08:17:14.542Z,5.70
2024-02-21T08:19:17.396Z,4.80
2024-02-21T08:21:19.952Z,5.63
2024-02-21T08:23:24.950Z,5.75
2024-02-21T08:25:27.416Z,4.82
2024-02-21T08:27:29.679Z,4.72
2024-02-21T08:29:32.107Z,6.30
2024-02-21T08:31:35.772Z,5.13
2024-02-21T08:33:38.477Z,5.30
2024-02-21T08:35:41.131Z,5.35
2024-02-21T08:37:44.574Z,5.45
2024-02-21T08:39:48.387Z,5.70
2024-02-21T08:41:57.345Z,5.65
2024-02-21T08:44:00.367Z,4.72
2024-02-21T08:46:03.111Z,4.18
2024-02-21T08:48:06.000Z,5.00
2024-02-21T08:50:19.184Z,6.32
2024-02-21T08:52:29.130Z,4.78
2024-02-21T08:54:31.656Z,5.03
2024-02-21T08:56:34.063Z,4.80
2024-02-21T08:58:40.935Z,3.95
2024-02-21T09:00:43.205Z,4.57
2024-02-21T09:02:45.817Z,5.03
2024-02-21T09:04:48.164Z,4.43
2024-02-21T09:06:50.761Z,3.97
2024-02-21T09:08:53.037Z,4.32
2024-02-21T09:10:55.521Z,4.78
2024-02-21T09:12:57.864Z,5.13
2024-02-21T09:15:00.491Z,4.03
2024-02-21T09:17:03.072Z,4.80
2024-02-21T09:19:05.856Z,3.97
2024-02-21T09:21:07.978Z,4.63
2024-02-21T09:23:10.899Z,4.45
2024-02-21T09:25:13.633Z,4.63
2024-02-21T09:27:16.168Z,5.40
2024-02-21T09:29:18.542Z,5.43
2024-02-21T09:31:21.302Z,4.93
2024-02-21T09:33:30.783Z,4.63
2024-02-21T09:35:35.252Z,4.03
2024-02-21T09:37:37.932Z,5.10
2024-02-21T09:39:40.474Z,4.85
2024-02-21T09:41:49.093Z,4.00
2024-02-21T09:43:51.701Z,4.65
2024-02-21T09:45:59.607Z,3.97
2024-02-21T09:48:35.876Z,3.80
2024-02-21T09:50:44.649Z,4.70
2024-02-21T09:52:47.821Z,4.35
2024-02-21T09:54:50.319Z,4.57
2024-02-21T09:56:53.225Z,4.60
2024-02-21T09:58:56.231Z,3.97
2024-02-21T10:00:59.867Z,4.50
2024-02-21T10:03:02.144Z,4.25
2024-02-21T10:05:06.254Z,4.72
2024-02-21T10:07:09.132Z,4.13
2024-02-21T10:09:29.476Z,4.95
2024-02-21T10:11:32.651Z,4.80
2024-02-21T10:13:35.216Z,4.70
2024-02-21T10:15:37.835Z,4.07
2024-02-21T10:17:41.434Z,5.03
2024-02-21T10:19:43.708Z,4.90
2024-02-21T10:22:00.971Z,4.30
2024-02-21T10:24:03.282Z,5.15
2024-02-21T10:26:09.199Z,4.72
2024-02-21T10:28:13.897Z,5.00
2024-02-21T10:30:17.182Z,5.07
2024-02-21T10:32:19.504Z,5.10
2024-02-21T10:34:22.366Z,5.03
2024-02-21T10:36:28.111Z,5.03
2024-02-21T10:38:30.714Z,6.55
2024-02-21T10:40:33.254Z,4.57
2024-02-21T10:42:38.791Z,5.82
2024-02-21T10:44:42.685Z,4.50
2024-02-21T10:46:45.727Z,5.88
2024-02-21T10:48:49.477Z,4.72
2024-02-21T10:51:10.168Z,5.57
2024-02-21T10:53:38.838Z,4.55
2024-02-21T10:55:50.297Z,5.57
2024-02-21T10:57:53.370Z,5.30
2024-02-21T11:00:01.734Z,5.07
2024-02-21T11:02:04.698Z,5.63
2024-02-21T11:04:13.406Z,6.32
2024-02-21T11:06:17.435Z,5.03
2024-02-21T11:08:20.445Z,5.65
2024-02-21T11:10:25.715Z,5.30
2024-02-21T11:12:28.897Z,5.88
2024-02-21T11:14:34.187Z,6.15
2024-02-21T11:16:42.213Z,6.18
2024-02-21T11:18:44.581Z,5.43
2024-02-21T11:20:54.739Z,6.55
2024-02-21T11:22:57.382Z,5.45
2024-02-21T11:25:13.029Z,4.82
2024-02-21T11:27:25.921Z,7.50
2024-02-21T11:29:29.969Z,6.38
2024-02-21T11:31:47.022Z,7.15
2024-02-21T11:33:50.240Z,6.22
2024-02-21T11:35:54.381Z,5.68
2024-02-21T11:37:57.044Z,5.10
2024-02-21T11:39:59.374Z,5.60
2024-02-21T11:42:11.364Z,5.35
2024-02-21T11:44:13.504Z,5.25
2024-02-21T11:46:15.983Z,6.15
2024-02-21T11:48:18.294Z,5.10
2024-02-21T11:50:22.019Z,5.70
2024-02-21T11:52:29.540Z,6.03
2024-02-21T11:54:33.168Z,5.93
2024-02-21T11:56:36.603Z,4.90
2024-02-21T11:58:39.335Z,5.13
2024-02-21T12:00:42.544Z,4.95
2024-02-21T12:02:47.046Z,4.90
2024-02-21T12:04:50.556Z,4.88
2024-02-21T12:06:55.742Z,4.90
2024-02-21T12:08:59.848Z,4.80
2024-02-21T12:11:02.320Z,5.05
2024-02-21T12:13:09.368Z,4.78
2024-02-21T12:15:12.297Z,5.40
2024-02-21T12:17:14.686Z,5.75
2024-02-21T12:19:18.387Z,4.65
2024-02-21T12:21:20.572Z,5.03
2024-02-21T12:23:23.028Z,3.90
2024-02-21T12:25:27.272Z,5.38
2024-02-21T12:27:30.061Z,4.57
2024-02-21T12:29:32.382Z,4.00
2024-02-21T12:31:34.798Z,3.65
2024-02-21T12:33:37.125Z,4.90
2024-02-21T12:35:39.667Z,3.80
2024-02-21T12:37:42.638Z,3.67
2024-02-21T12:39:45.340Z,4.22
2024-02-21T12:41:47.612Z,3.53
2024-02-21T12:43:50.102Z,3.75
2024-02-21T12:45:52.347Z,3.88
2024-02-21T12:47:54.878Z,4.00
2024-02-21T12:49:58.096Z,3.92
2024-02-21T12:52:00.596Z,5.22
2024-02-21T12:54:04.264Z,4.15
2024-02-21T12:56:08.932Z,4.60
2024-02-21T12:58:11.094Z,4.35
2024-02-21T13:00:15.058Z,4.85
2024-02-21T13:02:17.303Z,4.57
2024-02-21T13:04:20.374Z,4.32
2024-02-21T13:06:22.703Z,3.80
2024-02-21T13:08:25.294Z,4.93
2024-02-21T13:10:27.896Z,5.43
2024-02-21T13:12:31.663Z,4.85
2024-02-21T13:14:34.360Z,5.57
2024-02-21T13:16:40.719Z,4.68
2024-02-21T13:18:44.284Z,5.03
2024-02-21T13:20:46.920Z,4.70
2024-02-21T13:22:49.274Z,4.50
2024-02-21T13:24:54.128Z,3.72
2024-02-21T13:26:57.550Z,4.22
2024-02-21T13:29:00.135Z,4.82
2024-02-21T13:31:02.674Z,4.13
2024-02-21T13:33:05.354Z,4.22
2024-02-21T13:35:07.793Z,4.50
2024-02-21T13:37:11.088Z,5.72
2024-02-21T13:39:16.654Z,5.25
2024-02-21T13:41:19.606Z,3.75
2024-02-21T13:43:22.983Z,3.97
2024-02-21T13:45:25.572Z,4.40
2024-02-21T13:47:27.971Z,4.22
2024-02-21T13:49:31.763Z,4.43
2024-02-21T13:51:37.299Z,3.85
2024-02-21T13:53:39.948Z,4.25
2024-02-21T13:55:42.363Z,4.75
2024-02-21T13:57:44.958Z,4.70
2024-02-21T13:59:47.096Z,4.50
2024-02-21T14:01:49.743Z,5.47
2024-02-21T14:03:51.946Z,3.78
2024-02-21T14:05:54.357Z,5.63
2024-02-21T14:07:57.197Z,3.78
2024-02-21T14:09:59.893Z,4.18
2024-02-21T14:12:02.379Z,6.05
2024-02-21T14:14:05.984Z,4.60
2024-02-21T14:16:14.887Z,4.93
2024-02-21T14:18:17.761Z,4.55
2024-02-21T14:20:20.223Z,4.35
2024-02-21T14:22:22.681Z,5.05
2024-02-21T14:24:25.378Z,4.70
2024-02-21T14:26:27.916Z,5.32
2024-02-21T14:28:30.176Z,4.30
2024-02-21T14:30:33.077Z,5.07
2024-02-21T14:32:35.727Z,5.65
2024-02-21T14:34:38.393Z,5.35
2024-02-21T14:36:41.939Z,5.18
2024-02-21T14:38:45.300Z,5.13
2024-02-21T14:40:47.909Z,5.45
2024-02-21T14:42:50.355Z,4.20
2024-02-21T14:44:52.490Z,4.68
2024-02-21T14:46:54.928Z,4.57
2024-02-21T14:48:57.675Z,4.38
2024-02-21T14:51:00.309Z,4.68
2024-02-21T14:53:02.444Z,5.32
2024-02-21T14:55:06.673Z,4.60
2024-02-21T14:57:08.881Z,5.20
2024-02-21T14:59:18.086Z,4.85
2024-02-21T15:01:23.951Z,4.43
2024-02-21T15:03:28.962Z,5.40
2024-02-21T15:05:32.270Z,5.13
2024-02-21T15:07:34.992Z,4.32
2024-02-21T15:09:37.270Z,4.28
2024-02-21T15:11:39.814Z,5.05
2024-02-21T15:13:42.097Z,4.55
2024-02-21T15:15:44.647Z,4.88
2024-02-21T15:17:46.894Z,6.10
2024-02-21T15:19:49.542Z,6.65
2024-02-21T15:21:51.925Z,6.80
2024-02-21T15:23:54.429Z,5.38
2024-02-21T15:25:56.706Z,5.78
2024-02-21T15:28:00.524Z,5.85
2024-02-21T15:30:03.907Z,5.70
2024-02-21T15:32:06.940Z,5.70
2024-02-21T15:34:09.304Z,5.15
2024-02-21T15:36:11.899Z,5.30
2024-02-21T15:38:14.937Z,5.55
2024-02-21T15:40:17.563Z,4.60
2024-02-21T15:42:19.736Z,4.95
2024-02-21T15:44:22.808Z,5.25
2024-02-21T15:46:25.073Z,4.80
2024-02-21T15:48:27.689Z,5.22
2024-02-21T15:50:30.812Z,5.60
2024-02-21T15:52:33.363Z,4.72
2024-02-21T15:54:37.364Z,4.70
2024-02-21T15:56:40.253Z,4.80
2024-02-21T15:58:57.824Z,6.28
2024-02-21T16:01:00.365Z,5.35
2024-02-21T16:03:04.629Z,4.55
2024-02-21T16:05:12.448Z,5.25
2024-02-21T16:07:15.063Z,5.00
2024-02-21T16:09:17.943Z,4.95
2024-02-21T16:11:20.331Z,5.45
2024-02-21T16:13:23.310Z,5.57
2024-02-21T16:15:25.473Z,4.88
2024-02-21T16:17:28.036Z,5.32
2024-02-21T16:19:30.179Z,5.53
2024-02-21T16:21:32.637Z,5.20
2024-02-21T16:23:34.897Z,5.38
2024-02-21T16:25:37.424Z,6.05
2024-02-21T16:27:41.957Z,5.97
2024-02-21T16:29:44.421Z,6.28
2024-02-21T16:31:46.775Z,6.82
2024-02-21T16:33:49.368Z,6.07
2024-02-21T16:35:52.313Z,6.93
2024-02-21T16:37:55.350Z,6.30
2024-02-21T16:39:58.016Z,5.75
2024-02-21T16:42:04.255Z,5.78
2024-02-21T16:44:06.500Z,6.35
2024-02-21T16:46:08.974Z,5.38
2024-02-21T16:48:11.172Z,5.82
2024-02-21T16:50:14.365Z,6.07
2024-02-21T16:52:16.656Z,5.65
2024-02-21T16:54:23.379Z,5.13
2024-02-21T16:56:25.490Z,4.90
2024-02-21T16:58:27.952Z,6.00
2024-02-21T17:00:30.184Z,5.07
2024-02-21T17:02:36.115Z,5.90
2024-02-21T17:04:40.235Z,5.00
2024-02-21T17:06:43.560Z,5.97
2024-02-21T17:08:47.918Z,5.68
2024-02-21T17:10:51.427Z,5.40
2024-02-21T17:12:53.859Z,5.38
2024-02-21T17:14:56.919Z,6.20
2024-02-21T17:17:01.085Z,6.05
2024-02-21T17:19:06.226Z,6.43
2024-02-21T17:21:08.622Z,4.70
2024-02-21T17:23:13.795Z,5.65
2024-02-21T17:25:16.684Z,5.38
2024-02-21T17:27:22.752Z,6.32
2024-02-21T17:29:25.021Z,6.10
2024-02-21T17:31:29.136Z,5.32
2024-02-21T17:33:32.140Z,6.50
2024-02-21T17:35:36.165Z,6.18
2024-02-21T17:37:38.477Z,6.53
2024-02-21T17:39:41.036Z,6.72
2024-02-21T17:41:43.268Z,6.30
2024-02-21T17:43:48.621Z,6.68
2024-02-21T17:45:51.672Z,6.28
2024-02-21T17:47:54.339Z,5.95
2024-02-21T17:49:56.685Z,6.28
2024-02-21T17:51:59.142Z,5.95
2024-02-21T17:54:01.294Z,7.22
2024-02-21T17:56:05.250Z,7.93
2024-02-21T17:58:08.748Z,6.95
2024-02-21T18:00:13.001Z,7.40
2024-02-21T18:02:21.352Z,7.05
2024-02-21T18:04:24.649Z,7.82
2024-02-21T18:06:27.349Z,8.18
2024-02-21T18:08:30.513Z,6.72
2024-02-21T18:10:33.156Z,7.25
2024-02-21T18:12:37.471Z,7.28
2024-02-21T18:14:39.704Z,7.13
2024-02-21T18:16:42.623Z,7.28
2024-02-21T18:18:44.867Z,6.85
2024-02-21T18:20:51.054Z,8.18
2024-02-21T18:22:53.823Z,7.13
2024-02-21T18:24:58.390Z,5.85
2024-02-21T18:27:01.413Z,6.50
2024-02-21T18:29:03.995Z,6.47
2024-02-21T18:31:07.450Z,6.60
2024-02-21T18:33:11.812Z,6.70
2024-02-21T18:35:16.736Z,7.00
2024-02-21T18:37:22.658Z,6.88
2024-02-21T18:39:25.373Z,6.68
2024-02-21T18:41:30.673Z,7.88
2024-02-21T18:43:33.195Z,6.80
2024-02-21T18:45:36.912Z,7.53
2024-02-21T18:47:39.126Z,6.03
2024-02-21T18:49:45.189Z,7.97
2024-02-21T18:51:47.836Z,7.10
2024-02-21T18:53:50.366Z,5.97
2024-02-21T18:55:52.731Z,6.18
2024-02-21T18:57:55.322Z,6.25
2024-02-21T18:59:57.474Z,6.80
2024-02-21T19:02:00.025Z,7.13
2024-02-21T19:04:02.313Z,6.57
2024-02-21T19:06:05.120Z,6.78
2024-02-21T19:08:07.567Z,7.70
2024-02-21T19:10:10.573Z,6.70
2024-02-21T19:12:13.692Z,7.28
2024-02-21T19:14:16.606Z,6.22
2024-02-21T19:16:18.812Z,5.78
2024-02-21T19:18:21.775Z,6.13
2024-02-21T19:20:25.688Z,6.45
2024-02-21T19:22:30.673Z,6.45
2024-02-21T19:24:32.914Z,7.63
2024-02-21T19:26:35.669Z,5.13
2024-02-21T19:28:38.025Z,4.93
2024-02-21T19:30:41.122Z,5.30
2024-02-21T19:32:44.065Z,5.88
2024-02-21T19:34:46.989Z,5.47
2024-02-21T19:36:50.466Z,4.68
2024-02-21T19:38:53.084Z,6.05
2024-02-21T19:40:55.595Z,5.30
2024-02-21T19:43:02.323Z,5.38
2024-02-21T19:45:05.423Z,5.63
2024-02-21T19:47:07.924Z,4.88
2024-02-21T19:49:10.204Z,5.15
2024-02-21T19:51:12.900Z,5.47
2024-02-21T19:53:15.113Z,5.30
2024-02-21T19:55:18.648Z,4.07
2024-02-21T19:57:22.337Z,4.70
2024-02-21T19:59:24.947Z,5.30
2024-02-21T20:01:27.292Z,5.25
2024-02-21T20:03:29.955Z,5.38
2024-02-21T20:05:33.791Z,5.47
2024-02-21T20:07:36.939Z,5.60
2024-02-21T20:09:42.473Z,5.70
2024-02-21T20:11:45.505Z,5.38
2024-02-21T20:13:47.823Z,5.28
2024-02-21T20:15:50.282Z,5.68
2024-02-21T20:17:52.485Z,6.32
2024-02-21T20:19:56.592Z,5.78
2024-02-21T20:21:59.322Z,5.53
2024-02-21T20:24:02.824Z,5.97
2024-02-21T20:26:06.952Z,6.72
2024-02-21T20:28:11.341Z,5.88
2024-02-21T20:30:14.758Z,5.28
2024-02-21T20:32:17.334Z,4.72
2024-02-21T20:34:19.689Z,4.97
2024-02-21T20:36:22.214Z,5.13
2024-02-21T20:38:24.490Z,5.43
2024-02-21T20:40:27.270Z,5.78
2024-02-21T20:42:29.497Z,4.70
2024-02-21T20:44:32.000Z,4.70
2024-02-21T20:46:34.423Z,4.28
2024-02-21T20:48:36.952Z,4.68
2024-02-21T20:50:39.267Z,5.07
2024-02-21T20:52:42.349Z,5.18
2024-02-21T20:54:44.662Z,5.05
2024-02-21T20:56:47.696Z,4.95
2024-02-21T20:58:50.381Z,4.28
2024-02-21T21:00:52.997Z,4.25
2024-02-21T21:02:55.443Z,4.95
2024-02-21T21:04:59.287Z,5.30
2024-02-21T21:07:02.569Z,4.55
2024-02-21T21:09:05.153Z,4.95
2024-02-21T21:11:07.590Z,4.00
2024-02-21T21:13:16.211Z,5.13
2024-02-21T21:15:29.215Z,4.57
2024-02-21T21:17:32.569Z,4.50
2024-02-21T21:19:34.962Z,4.65
2024-02-21T21:21:37.467Z,4.38
2024-02-21T21:23:41.954Z,4.07
2024-02-21T21:25:44.455Z,4.22
2024-02-21T21:27:48.031Z,4.05
2024-02-21T21:29:53.990Z,5.47
2024-02-21T21:31:56.305Z,4.32
2024-02-21T21:33:58.880Z,4.50
2024-02-21T21:36:02.430Z,5.20
2024-02-21T21:38:07.820Z,4.65
2024-02-21T21:40:13.537Z,3.95
2024-02-21T21:42:16.058Z,3.63
2024-02-21T21:44:18.800Z,4.55
2024-02-21T21:46:22.173Z,4.30
2024-02-21T21:48:24.440Z,4.18
2024-02-21T21:50:27.017Z,4.30
2024-02-21T21:52:29.395Z,4.57
2024-02-21T21:54:31.849Z,4.32
2024-02-21T21:56:35.557Z,4.65
2024-02-21T21:58:38.145Z,3.90
2024-02-21T22:00:40.350Z,5.00
2024-02-21T22:02:45.421Z,5.03
2024-02-21T22:04:50.015Z,5.55
2024-02-21T22:06:52.641Z,5.25
2024-02-21T22:08:54.845Z,5.93
2024-02-21T22:10:57.278Z,4.25
2024-02-21T22:12:59.630Z,4.82
2024-02-21T22:15:02.189Z,5.40
2024-02-21T22:17:04.625Z,5.75
2024-02-21T22:19:07.254Z,4.20
2024-02-21T22:21:09.460Z,4.65
2024-02-21T22:23:12.026Z,4.15
2024-02-21T22:25:14.400Z,4.75
2024-02-21T22:27:19.481Z,5.72
2024-02-21T22:29:21.710Z,5.07
2024-02-21T22:31:24.263Z,5.32
2024-02-21T22:33:26.792Z,4.70
2024-02-21T22:35:29.340Z,4.18
2024-02-21T22:37:31.844Z,4.72
2024-02-21T22:39:34.343Z,4.80
2024-02-21T22:41:36.828Z,4.43
2024-02-21T22:43:39.330Z,5.15
2024-02-21T22:45:41.716Z,4.63
2024-02-21T22:47:44.695Z,4.93
2024-02-21T22:49:46.960Z,4.80
2024-02-21T22:51:53.583Z,5.32
2024-02-21T22:53:56.477Z,5.03
2024-02-21T22:55:58.913Z,5.85
2024-02-21T22:58:01.173Z,4.35
2024-02-21T23:00:04.233Z,5.55
2024-02-21T23:02:06.811Z,5.38
2024-02-21T23:04:11.500Z,6.22
2024-02-21T23:06:13.702Z,5.65
2024-02-21T23:08:16.580Z,5.20
2024-02-21T23:10:19.230Z,6.10
2024-02-21T23:12:23.483Z,5.10
2024-02-21T23:14:25.841Z,5.25
2024-02-21T23:16:28.500Z,5.93
2024-02-21T23:18:30.806Z,6.32
2024-02-21T23:20:33.410Z,5.65
2024-02-21T23:22:36.397Z,6.13
2024-02-21T23:24:38.914Z,6.00
2024-02-21T23:26:41.781Z,5.80
2024-02-21T23:28:45.348Z,6.03
2024-02-21T23:30:47.761Z,5.18
2024-02-21T23:32:50.330Z,6.32
2024-02-21T23:34:52.546Z,5.47
2024-02-21T23:36:55.150Z,5.28
2024-02-21T23:38:57.345Z,5.40
2024-02-21T23:41:00.650Z,5.25
2024-02-21T23:43:02.955Z,5.38
2024-02-21T23:45:06.478Z,4.03
2024-02-21T23:47:08.792Z,5.78
2024-02-21T23:49:11.445Z,5.45
2024-02-21T23:51:13.633Z,5.20
2024-02-21T23:53:16.521Z,5.22
2024-02-21T23:55:18.731Z,5.10
2024-02-21T23:57:21.194Z,4.57
2024-02-21T23:59:23.486Z,4.80
